Dades de l'estació automàtica Cunit
Resum diari
21:30 TU| Temperatura mitjana | 16.9 °C | |
|---|---|---|
| Temperatura màxima | 20.2 °C | 9:06 TU |
| Temperatura mínima | 12.0 °C | 21:55 TU |
| Humitat relativa mitjana | 83% | |
| Precipitació acumulada | 2.3 mm | |
| Ratxa màxima del vent (10 m) | 23.4 km/h - 209º | 11:36 TU |
| Pressió atmosfèrica mitjana | 1012.7 hPa | |
| Irradiació solar global | 11.9 MJ/m2 | |
El tram horari està expressat en Temps Universal (TU). Cal sumar una hora en horari d'hivern i dues en horari d'estiu per passar a l'hora oficial.
Cunit
| Municipi | Cunit |
|---|---|
| Comarca | Baix Penedès |
| Altitud | 18 m |
| Data alta | 27.06.2006 |
| Estat actual | Operativa |
| Període TU |
TM °C |
TX °C |
TN °C |
HRM % |
PPT mm |
VVM (10 m) km/h |
DVM (10 m) graus |
VVX (10 m) km/h |
PM hPa |
RS W/m2 |
|---|---|---|---|---|---|---|---|---|---|---|
| 00:00 - 00:30 | 15.8 | 15.8 | 15.8 | 86 | 0.0 | 1.8 | 355 | 8.3 | 1014.3 | 0 |
| 00:30 - 01:00 | 15.8 | 15.8 | 15.8 | 86 | 0.0 | 2.5 | 354 | 8.3 | 1014.2 | 0 |
| 01:00 - 01:30 | 15.7 | 15.8 | 15.6 | 87 | 0.0 | 3.2 | 349 | 10.1 | 1013.9 | 0 |
| 01:30 - 02:00 | 15.5 | 15.6 | 15.4 | 88 | 0.0 | 0.7 | 347 | 5.4 | 1013.8 | 0 |
| 02:00 - 02:30 | 15.3 | 15.5 | 15.1 | 88 | 0.0 | 1.4 | 349 | 6.1 | 1013.5 | 0 |
| 02:30 - 03:00 | 15.2 | 15.2 | 15.1 | 89 | 0.0 | 1.1 | 348 | 5.8 | 1013.5 | 0 |
| 03:00 - 03:30 | 15.1 | 15.1 | 15.0 | 90 | 0.0 | 1.1 | 342 | 5.0 | 1013.6 | 0 |
| 03:30 - 04:00 | 15.2 | 15.3 | 15.0 | 90 | 0.0 | 1.4 | 348 | 6.5 | 1013.6 | 0 |
| 04:00 - 04:30 | 15.5 | 15.6 | 15.2 | 88 | 0.0 | 0.7 | 349 | 4.7 | 1013.4 | 0 |
| 04:30 - 05:00 | 15.6 | 15.7 | 15.6 | 87 | 0.0 | 1.8 | 348 | 7.9 | 1013.3 | 1 |
| 05:00 - 05:30 | 15.6 | 15.7 | 15.5 | 87 | 0.0 | 0.4 | 343 | 4.0 | 1013.2 | 27 |
| 05:30 - 06:00 | 15.7 | 16.2 | 15.5 | 88 | 0.0 | 0.4 | 347 | 4.0 | 1013.1 | 72 |
| 06:00 - 06:30 | 16.6 | 18.0 | 16.2 | 84 | 0.0 | 1.4 | 341 | 5.8 | 1013.3 | 176 |
| 06:30 - 07:00 | 18.7 | 19.2 | 18.2 | 75 | 0.0 | 3.2 | 66 | 9.0 | 1013.3 | 296 |
| 07:00 - 07:30 | 18.7 | 18.9 | 18.2 | 75 | 0.0 | 4.3 | 78 | 11.9 | 1013.1 | 282 |
| 07:30 - 08:00 | 18.4 | 18.5 | 18.2 | 76 | 0.0 | 4.0 | 118 | 9.0 | 1013.1 | 152 |
| 08:00 - 08:30 | 18.3 | 18.4 | 18.2 | 79 | 0.0 | 4.7 | 147 | 9.0 | 1013.1 | 197 |
| 08:30 - 09:00 | 19.0 | 19.9 | 18.4 | 77 | 0.0 | 4.0 | 163 | 7.2 | 1012.9 | 468 |
| 09:00 - 09:30 | 19.5 | 20.2 | 18.9 | 76 | 0.0 | 8.3 | 162 | 14.0 | 1012.8 | 613 |
| 09:30 - 10:00 | 19.1 | 19.5 | 18.7 | 80 | 0.0 | 10.4 | 161 | 18.7 | 1012.9 | 410 |
| 10:00 - 10:30 | 18.8 | 19.0 | 18.4 | 83 | 0.0 | 9.7 | 163 | 16.9 | 1012.9 | 330 |
| 10:30 - 11:00 | 18.2 | 18.7 | 18.0 | 86 | 0.0 | 6.1 | 157 | 14.0 | 1012.6 | 189 |
| 11:00 - 11:30 | 18.4 | 18.7 | 18.2 | 84 | 0.0 | 10.4 | 176 | 22.7 | 1012.7 | 280 |
| 11:30 - 12:00 | 18.4 | 18.9 | 18.1 | 79 | 0.0 | 9.7 | 193 | 23.4 | 1012.7 | 352 |
| 12:00 - 12:30 | 18.2 | 18.6 | 17.9 | 77 | 0.0 | 10.8 | 214 | 18.4 | 1012.6 | 363 |
| 12:30 - 13:00 | 18.6 | 18.9 | 18.2 | 75 | 0.0 | 10.8 | 220 | 21.6 | 1012.5 | 423 |
| 13:00 - 13:30 | 18.0 | 18.4 | 17.8 | 74 | 0.0 | 6.5 | 246 | 16.2 | 1012.1 | 202 |
| 13:30 - 14:00 | 18.2 | 18.6 | 17.5 | 74 | 0.0 | 6.5 | 227 | 14.0 | 1011.9 | 188 |
| 14:00 - 14:30 | 17.3 | 17.7 | 17.2 | 77 | 0.0 | 5.4 | 191 | 11.2 | 1011.9 | 115 |
| 14:30 - 15:00 | 18.0 | 18.4 | 17.7 | 77 | 0.0 | 3.2 | 195 | 8.3 | 1011.6 | 179 |
| 15:00 - 15:30 | 18.2 | 18.4 | 17.9 | 78 | 0.0 | 4.3 | 186 | 7.9 | 1011.6 | 241 |
| 15:30 - 16:00 | 18.5 | 19.3 | 18.1 | 74 | 0.0 | 5.0 | 174 | 11.5 | 1011.2 | 346 |
| 16:00 - 16:30 | 19.1 | 20.2 | 18.1 | 71 | 0.0 | 6.8 | 190 | 13.0 | 1011.2 | 374 |
| 16:30 - 17:00 | 18.2 | 18.8 | 17.7 | 75 | 0.0 | 6.1 | 196 | 10.8 | 1011.2 | 156 |
| 17:00 - 17:30 | 17.9 | 18.1 | 17.6 | 78 | 0.0 | 4.7 | 199 | 9.0 | 1011.2 | 129 |
| 17:30 - 18:00 | 17.6 | 17.9 | 17.3 | 83 | 0.0 | 6.5 | 206 | 12.2 | 1011.2 | 74 |
| 18:00 - 18:30 | 17.1 | 17.3 | 17.1 | 85 | 0.0 | 6.1 | 234 | 13.3 | 1011.6 | 6 |
| 18:30 - 19:00 | 17.3 | 17.5 | 17.2 | 81 | 0.0 | 6.1 | 244 | 15.1 | 1012.0 | 1 |
| 19:00 - 19:30 | 16.6 | 17.5 | 15.2 | 90 | 2.1 | 8.3 | 287 | 19.8 | 1012.4 | 0 |
| 19:30 - 20:00 | 14.7 | 15.1 | 14.4 | 93 | 0.2 | 4.7 | 311 | 15.5 | 1012.2 | 0 |
| 20:00 - 20:30 | 14.4 | 14.5 | 14.1 | 94 | 0.0 | 2.2 | 53 | 7.2 | 1012.3 | 0 |
| 20:30 - 21:00 | 13.9 | 14.1 | 13.3 | 95 | 0.0 | 2.5 | 224 | 5.0 | 1012.8 | 0 |
| 21:00 - 21:30 | 13.1 | 13.6 | 12.7 | 96 | 0.0 | 3.6 | 343 | 7.2 | 1012.8 | 0 |
| 21:30 - 22:00 | 12.3 | 12.7 | 12.0 | 97 | 0.0 | 4.7 | 340 | 8.6 | 1012.7 | 0 |
Les dades en taronja només han passat un control de qualitat automàtic. Resta pendent la seva validació definitiva.